sensor_id;sensor_type;location;lat;lon;timestamp;P1;durP1;ratioP1;P2;durP2;ratioP2
75311;SDS011;63906;55.686;37.532;2023-07-08T00:03:38;13.18;;;8.50;;
75311;SDS011;63906;55.686;37.532;2023-07-08T00:08:38;10.45;;;7.55;;
75311;SDS011;63906;55.686;37.532;2023-07-08T00:13:39;10.30;;;7.80;;
75311;SDS011;63906;55.686;37.532;2023-07-08T00:18:40;10.10;;;7.63;;
75311;SDS011;63906;55.686;37.532;2023-07-08T00:23:44;12.32;;;8.85;;
75311;SDS011;63906;55.686;37.532;2023-07-08T00:28:46;10.63;;;7.63;;
75311;SDS011;63906;55.686;37.532;2023-07-08T00:33:46;12.20;;;8.57;;
75311;SDS011;63906;55.686;37.532;2023-07-08T00:38:46;13.52;;;8.80;;
75311;SDS011;63906;55.686;37.532;2023-07-08T00:43:51;13.52;;;9.00;;
75311;SDS011;63906;55.686;37.532;2023-07-08T00:48:55;14.05;;;9.25;;
75311;SDS011;63906;55.686;37.532;2023-07-08T00:53:56;12.95;;;8.57;;
75311;SDS011;63906;55.686;37.532;2023-07-08T00:59:04;12.68;;;9.38;;
75311;SDS011;63906;55.686;37.532;2023-07-08T01:09:22;12.57;;;7.57;;
75311;SDS011;63906;55.686;37.532;2023-07-08T01:14:28;13.32;;;8.88;;
75311;SDS011;63906;55.686;37.532;2023-07-08T01:19:32;13.07;;;9.10;;
75311;SDS011;63906;55.686;37.532;2023-07-08T01:24:34;12.98;;;8.70;;
75311;SDS011;63906;55.686;37.532;2023-07-08T01:29:38;13.25;;;9.18;;
75311;SDS011;63906;55.686;37.532;2023-07-08T01:34:39;11.63;;;8.30;;
75311;SDS011;63906;55.686;37.532;2023-07-08T01:39:40;11.80;;;7.80;;
75311;SDS011;63906;55.686;37.532;2023-07-08T01:44:40;11.60;;;8.30;;
75311;SDS011;63906;55.686;37.532;2023-07-08T01:49:41;12.73;;;8.85;;
75311;SDS011;63906;55.686;37.532;2023-07-08T01:54:44;11.52;;;8.32;;
75311;SDS011;63906;55.686;37.532;2023-07-08T01:59:44;13.20;;;8.68;;
75311;SDS011;63906;55.686;37.532;2023-07-08T02:04:45;13.60;;;9.60;;
75311;SDS011;63906;55.686;37.532;2023-07-08T02:09:45;14.27;;;9.50;;
75311;SDS011;63906;55.686;37.532;2023-07-08T02:14:46;13.82;;;9.65;;
75311;SDS011;63906;55.686;37.532;2023-07-08T02:19:47;14.40;;;10.55;;
75311;SDS011;63906;55.686;37.532;2023-07-08T02:24:47;14.75;;;10.13;;
75311;SDS011;63906;55.686;37.532;2023-07-08T02:29:48;15.75;;;11.95;;
75311;SDS011;63906;55.686;37.532;2023-07-08T02:34:48;14.60;;;9.70;;
75311;SDS011;63906;55.686;37.532;2023-07-08T02:39:52;12.10;;;8.95;;
75311;SDS011;63906;55.686;37.532;2023-07-08T02:44:52;15.07;;;10.70;;
75311;SDS011;63906;55.686;37.532;2023-07-08T02:49:53;12.55;;;8.45;;
75311;SDS011;63906;55.686;37.532;2023-07-08T02:54:54;11.80;;;8.77;;
75311;SDS011;63906;55.686;37.532;2023-07-08T02:59:55;13.65;;;8.95;;
75311;SDS011;63906;55.686;37.532;2023-07-08T03:04:55;14.57;;;10.30;;
75311;SDS011;63906;55.686;37.532;2023-07-08T03:09:59;15.90;;;11.30;;
75311;SDS011;63906;55.686;37.532;2023-07-08T03:15:00;14.75;;;11.30;;
75311;SDS011;63906;55.686;37.532;2023-07-08T03:25:09;13.73;;;9.35;;
75311;SDS011;63906;55.686;37.532;2023-07-08T03:30:09;17.35;;;10.80;;
75311;SDS011;63906;55.686;37.532;2023-07-08T03:35:10;14.45;;;9.27;;
75311;SDS011;63906;55.686;37.532;2023-07-08T03:40:11;12.27;;;9.15;;
75311;SDS011;63906;55.686;37.532;2023-07-08T03:45:12;13.38;;;8.95;;
75311;SDS011;63906;55.686;37.532;2023-07-08T03:50:21;13.68;;;9.43;;
75311;SDS011;63906;55.686;37.532;2023-07-08T03:55:26;12.93;;;9.75;;
75311;SDS011;63906;55.686;37.532;2023-07-08T04:00:28;13.48;;;10.13;;
75311;SDS011;63906;55.686;37.532;2023-07-08T04:05:29;13.43;;;9.93;;
75311;SDS011;63906;55.686;37.532;2023-07-08T04:10:29;13.98;;;9.38;;
75311;SDS011;63906;55.686;37.532;2023-07-08T04:15:30;13.75;;;9.15;;
75311;SDS011;63906;55.686;37.532;2023-07-08T04:20:32;13.25;;;8.73;;
75311;SDS011;63906;55.686;37.532;2023-07-08T04:25:33;11.13;;;8.27;;
75311;SDS011;63906;55.686;37.532;2023-07-08T04:30:34;12.93;;;8.45;;
75311;SDS011;63906;55.686;37.532;2023-07-08T04:35:41;11.05;;;8.07;;
75311;SDS011;63906;55.686;37.532;2023-07-08T04:40:43;12.52;;;8.63;;
75311;SDS011;63906;55.686;37.532;2023-07-08T04:45:45;13.43;;;8.88;;
75311;SDS011;63906;55.686;37.532;2023-07-08T04:50:50;10.90;;;7.57;;
75311;SDS011;63906;55.686;37.532;2023-07-08T04:56:01;11.68;;;8.32;;
75311;SDS011;63906;55.686;37.532;2023-07-08T05:01:09;10.70;;;8.02;;
75311;SDS011;63906;55.686;37.532;2023-07-08T05:06:09;10.63;;;7.38;;
75311;SDS011;63906;55.686;37.532;2023-07-08T05:11:10;12.25;;;8.48;;
75311;SDS011;63906;55.686;37.532;2023-07-08T05:16:11;11.05;;;7.25;;
75311;SDS011;63906;55.686;37.532;2023-07-08T05:21:11;10.60;;;7.82;;
75311;SDS011;63906;55.686;37.532;2023-07-08T05:26:12;10.60;;;7.20;;
75311;SDS011;63906;55.686;37.532;2023-07-08T05:31:12;10.55;;;7.90;;
75311;SDS011;63906;55.686;37.532;2023-07-08T05:36:13;9.65;;;7.38;;
75311;SDS011;63906;55.686;37.532;2023-07-08T05:41:17;9.27;;;6.47;;
75311;SDS011;63906;55.686;37.532;2023-07-08T05:46:17;10.07;;;7.10;;
75311;SDS011;63906;55.686;37.532;2023-07-08T05:51:18;8.38;;;6.15;;
75311;SDS011;63906;55.686;37.532;2023-07-08T05:56:18;8.23;;;5.93;;
75311;SDS011;63906;55.686;37.532;2023-07-08T06:01:19;9.32;;;6.60;;
75311;SDS011;63906;55.686;37.532;2023-07-08T06:06:19;8.82;;;6.30;;
75311;SDS011;63906;55.686;37.532;2023-07-08T06:11:20;6.95;;;5.80;;
75311;SDS011;63906;55.686;37.532;2023-07-08T06:16:22;6.75;;;5.65;;
75311;SDS011;63906;55.686;37.532;2023-07-08T06:21:23;6.78;;;5.20;;
75311;SDS011;63906;55.686;37.532;2023-07-08T06:26:39;5.65;;;4.97;;
75311;SDS011;63906;55.686;37.532;2023-07-08T06:31:46;7.00;;;5.70;;
75311;SDS011;63906;55.686;37.532;2023-07-08T06:36:47;8.85;;;6.65;;
75311;SDS011;63906;55.686;37.532;2023-07-08T06:41:47;9.63;;;7.07;;
75311;SDS011;63906;55.686;37.532;2023-07-08T06:46:48;10.05;;;6.90;;
75311;SDS011;63906;55.686;37.532;2023-07-08T06:51:48;8.38;;;6.82;;
75311;SDS011;63906;55.686;37.532;2023-07-08T06:56:52;10.93;;;7.00;;
75311;SDS011;63906;55.686;37.532;2023-07-08T07:01:52;9.25;;;7.25;;
75311;SDS011;63906;55.686;37.532;2023-07-08T07:06:52;9.88;;;6.70;;
75311;SDS011;63906;55.686;37.532;2023-07-08T07:11:53;11.38;;;7.85;;
75311;SDS011;63906;55.686;37.532;2023-07-08T07:16:54;9.50;;;6.78;;
75311;SDS011;63906;55.686;37.532;2023-07-08T07:21:55;10.98;;;8.27;;
75311;SDS011;63906;55.686;37.532;2023-07-08T07:26:55;9.95;;;7.03;;
75311;SDS011;63906;55.686;37.532;2023-07-08T07:31:56;9.98;;;6.53;;
75311;SDS011;63906;55.686;37.532;2023-07-08T07:36:57;9.70;;;6.63;;
75311;SDS011;63906;55.686;37.532;2023-07-08T07:41:57;7.97;;;6.07;;
75311;SDS011;63906;55.686;37.532;2023-07-08T07:46:58;7.30;;;5.47;;
75311;SDS011;63906;55.686;37.532;2023-07-08T07:51:58;9.05;;;6.38;;
75311;SDS011;63906;55.686;37.532;2023-07-08T07:56:59;8.18;;;5.82;;
75311;SDS011;63906;55.686;37.532;2023-07-08T08:01:59;9.38;;;5.82;;
75311;SDS011;63906;55.686;37.532;2023-07-08T08:07:00;7.97;;;5.78;;
75311;SDS011;63906;55.686;37.532;2023-07-08T08:12:04;8.23;;;6.05;;
75311;SDS011;63906;55.686;37.532;2023-07-08T08:17:05;9.10;;;6.57;;
75311;SDS011;63906;55.686;37.532;2023-07-08T08:22:05;9.82;;;6.18;;
75311;SDS011;63906;55.686;37.532;2023-07-08T08:27:06;6.47;;;5.78;;
75311;SDS011;63906;55.686;37.532;2023-07-08T08:32:06;6.63;;;5.30;;
75311;SDS011;63906;55.686;37.532;2023-07-08T08:37:07;9.35;;;6.38;;
75311;SDS011;63906;55.686;37.532;2023-07-08T08:42:22;7.63;;;6.22;;
75311;SDS011;63906;55.686;37.532;2023-07-08T08:47:36;9.02;;;6.95;;
75311;SDS011;63906;55.686;37.532;2023-07-08T08:57:51;8.45;;;5.70;;
75311;SDS011;63906;55.686;37.532;2023-07-08T09:03:13;6.93;;;5.72;;
75311;SDS011;63906;55.686;37.532;2023-07-08T09:08:33;8.50;;;6.15;;
75311;SDS011;63906;55.686;37.532;2023-07-08T09:13:36;8.68;;;6.18;;
75311;SDS011;63906;55.686;37.532;2023-07-08T09:24:01;7.88;;;6.28;;
75311;SDS011;63906;55.686;37.532;2023-07-08T09:34:10;8.82;;;6.40;;
75311;SDS011;63906;55.686;37.532;2023-07-08T09:39:25;6.65;;;5.90;;
75311;SDS011;63906;55.686;37.532;2023-07-08T09:44:30;6.60;;;5.88;;
75311;SDS011;63906;55.686;37.532;2023-07-08T09:49:31;6.75;;;6.05;;
75311;SDS011;63906;55.686;37.532;2023-07-08T09:54:34;7.30;;;5.80;;
75311;SDS011;63906;55.686;37.532;2023-07-08T09:59:39;8.23;;;5.97;;
75311;SDS011;63906;55.686;37.532;2023-07-08T10:04:46;9.75;;;5.88;;
75311;SDS011;63906;55.686;37.532;2023-07-08T10:09:47;7.15;;;5.95;;
75311;SDS011;63906;55.686;37.532;2023-07-08T10:14:56;6.35;;;5.70;;
75311;SDS011;63906;55.686;37.532;2023-07-08T10:20:04;6.35;;;4.95;;
75311;SDS011;63906;55.686;37.532;2023-07-08T10:25:32;5.78;;;4.85;;
75311;SDS011;63906;55.686;37.532;2023-07-08T10:30:52;5.40;;;4.15;;
75311;SDS011;63906;55.686;37.532;2023-07-08T10:36:25;5.00;;;3.53;;
75311;SDS011;63906;55.686;37.532;2023-07-08T10:52:35;3.30;;;3.00;;
75311;SDS011;63906;55.686;37.532;2023-07-08T11:08:24;3.45;;;2.28;;
75311;SDS011;63906;55.686;37.532;2023-07-08T11:13:26;2.60;;;2.30;;
75311;SDS011;63906;55.686;37.532;2023-07-08T11:23:48;2.72;;;2.20;;
75311;SDS011;63906;55.686;37.532;2023-07-08T11:28:58;2.72;;;2.50;;
75311;SDS011;63906;55.686;37.532;2023-07-08T11:34:00;2.63;;;2.30;;
75311;SDS011;63906;55.686;37.532;2023-07-08T11:39:02;3.13;;;2.53;;
75311;SDS011;63906;55.686;37.532;2023-07-08T11:49:05;3.83;;;2.83;;
75311;SDS011;63906;55.686;37.532;2023-07-08T11:54:26;3.50;;;2.67;;
75311;SDS011;63906;55.686;37.532;2023-07-08T11:59:33;2.67;;;2.40;;
75311;SDS011;63906;55.686;37.532;2023-07-08T12:20:21;2.90;;;2.60;;
75311;SDS011;63906;55.686;37.532;2023-07-08T12:25:30;2.78;;;1.98;;
75311;SDS011;63906;55.686;37.532;2023-07-08T12:30:32;3.03;;;2.28;;
75311;SDS011;63906;55.686;37.532;2023-07-08T12:35:36;2.90;;;2.38;;
75311;SDS011;63906;55.686;37.532;2023-07-08T12:45:37;2.83;;;1.90;;
75311;SDS011;63906;55.686;37.532;2023-07-08T12:50:37;2.10;;;1.90;;
75311;SDS011;63906;55.686;37.532;2023-07-08T12:55:38;3.05;;;2.40;;
75311;SDS011;63906;55.686;37.532;2023-07-08T13:00:42;3.55;;;2.05;;
75311;SDS011;63906;55.686;37.532;2023-07-08T13:05:46;2.67;;;2.00;;
75311;SDS011;63906;55.686;37.532;2023-07-08T13:10:49;2.55;;;2.00;;
75311;SDS011;63906;55.686;37.532;2023-07-08T13:15:52;2.58;;;2.10;;
75311;SDS011;63906;55.686;37.532;2023-07-08T13:20:59;2.50;;;2.05;;
75311;SDS011;63906;55.686;37.532;2023-07-08T13:26:11;2.10;;;1.90;;
75311;SDS011;63906;55.686;37.532;2023-07-08T13:31:20;2.40;;;2.05;;
75311;SDS011;63906;55.686;37.532;2023-07-08T13:36:27;2.92;;;2.20;;
75311;SDS011;63906;55.686;37.532;2023-07-08T13:41:31;2.60;;;2.40;;
75311;SDS011;63906;55.686;37.532;2023-07-08T13:46:34;2.47;;;2.28;;
75311;SDS011;63906;55.686;37.532;2023-07-08T13:51:40;2.50;;;2.20;;
75311;SDS011;63906;55.686;37.532;2023-07-08T13:56:42;2.22;;;2.00;;
75311;SDS011;63906;55.686;37.532;2023-07-08T14:01:44;2.65;;;2.08;;
75311;SDS011;63906;55.686;37.532;2023-07-08T14:06:45;3.50;;;2.20;;
75311;SDS011;63906;55.686;37.532;2023-07-08T14:16:51;3.30;;;1.98;;
75311;SDS011;63906;55.686;37.532;2023-07-08T14:21:58;2.85;;;2.00;;
75311;SDS011;63906;55.686;37.532;2023-07-08T14:27:01;3.53;;;2.05;;
75311;SDS011;63906;55.686;37.532;2023-07-08T14:32:02;2.22;;;1.65;;
75311;SDS011;63906;55.686;37.532;2023-07-08T14:37:04;2.80;;;2.10;;
75311;SDS011;63906;55.686;37.532;2023-07-08T14:42:14;2.30;;;1.80;;
75311;SDS011;63906;55.686;37.532;2023-07-08T14:47:18;2.65;;;2.00;;
75311;SDS011;63906;55.686;37.532;2023-07-08T14:52:19;3.35;;;1.75;;
75311;SDS011;63906;55.686;37.532;2023-07-08T14:57:25;3.05;;;1.73;;
75311;SDS011;63906;55.686;37.532;2023-07-08T15:02:32;2.00;;;1.50;;
75311;SDS011;63906;55.686;37.532;2023-07-08T15:07:35;1.60;;;1.30;;
75311;SDS011;63906;55.686;37.532;2023-07-08T15:12:36;1.70;;;1.40;;
75311;SDS011;63906;55.686;37.532;2023-07-08T15:17:37;1.70;;;1.50;;
75311;SDS011;63906;55.686;37.532;2023-07-08T15:22:37;1.77;;;1.42;;
75311;SDS011;63906;55.686;37.532;2023-07-08T15:27:38;2.80;;;1.90;;
75311;SDS011;63906;55.686;37.532;2023-07-08T15:32:41;2.83;;;1.60;;
75311;SDS011;63906;55.686;37.532;2023-07-08T15:37:42;2.33;;;1.88;;
75311;SDS011;63906;55.686;37.532;2023-07-08T15:42:44;2.92;;;1.60;;
75311;SDS011;63906;55.686;37.532;2023-07-08T15:47:47;2.08;;;1.88;;
75311;SDS011;63906;55.686;37.532;2023-07-08T15:52:47;2.15;;;1.75;;
75311;SDS011;63906;55.686;37.532;2023-07-08T15:57:54;2.30;;;1.90;;
75311;SDS011;63906;55.686;37.532;2023-07-08T16:02:58;2.72;;;1.90;;
75311;SDS011;63906;55.686;37.532;2023-07-08T16:08:02;2.05;;;1.80;;
75311;SDS011;63906;55.686;37.532;2023-07-08T16:13:03;2.90;;;1.70;;
75311;SDS011;63906;55.686;37.532;2023-07-08T16:18:04;3.03;;;1.85;;
75311;SDS011;63906;55.686;37.532;2023-07-08T16:23:09;2.10;;;1.90;;
75311;SDS011;63906;55.686;37.532;2023-07-08T16:28:15;1.70;;;1.42;;
75311;SDS011;63906;55.686;37.532;2023-07-08T16:33:16;3.03;;;1.30;;
75311;SDS011;63906;55.686;37.532;2023-07-08T16:38:19;1.67;;;1.38;;
75311;SDS011;63906;55.686;37.532;2023-07-08T16:43:28;2.20;;;1.67;;
75311;SDS011;63906;55.686;37.532;2023-07-08T16:48:31;2.13;;;1.50;;
75311;SDS011;63906;55.686;37.532;2023-07-08T16:53:31;1.73;;;1.45;;
75311;SDS011;63906;55.686;37.532;2023-07-08T16:58:32;1.38;;;1.20;;
75311;SDS011;63906;55.686;37.532;2023-07-08T17:03:32;1.40;;;1.30;;
75311;SDS011;63906;55.686;37.532;2023-07-08T17:08:34;3.15;;;2.17;;
75311;SDS011;63906;55.686;37.532;2023-07-08T17:13:34;3.38;;;2.00;;
75311;SDS011;63906;55.686;37.532;2023-07-08T17:18:37;1.98;;;1.65;;
75311;SDS011;63906;55.686;37.532;2023-07-08T17:23:38;2.90;;;1.75;;
75311;SDS011;63906;55.686;37.532;2023-07-08T17:28:39;1.67;;;1.33;;
75311;SDS011;63906;55.686;37.532;2023-07-08T17:33:39;1.85;;;1.33;;
75311;SDS011;63906;55.686;37.532;2023-07-08T17:38:44;1.73;;;1.27;;
75311;SDS011;63906;55.686;37.532;2023-07-08T17:43:47;1.80;;;1.60;;
75311;SDS011;63906;55.686;37.532;2023-07-08T17:48:48;2.05;;;1.45;;
75311;SDS011;63906;55.686;37.532;2023-07-08T17:53:50;1.55;;;1.20;;
75311;SDS011;63906;55.686;37.532;2023-07-08T17:58:52;1.63;;;1.10;;
75311;SDS011;63906;55.686;37.532;2023-07-08T18:03:54;1.50;;;1.20;;
75311;SDS011;63906;55.686;37.532;2023-07-08T18:08:55;1.52;;;1.30;;
75311;SDS011;63906;55.686;37.532;2023-07-08T18:13:56;2.10;;;1.45;;
75311;SDS011;63906;55.686;37.532;2023-07-08T18:18:56;1.63;;;1.30;;
75311;SDS011;63906;55.686;37.532;2023-07-08T18:23:57;1.42;;;1.25;;
75311;SDS011;63906;55.686;37.532;2023-07-08T18:28:58;2.25;;;1.45;;
75311;SDS011;63906;55.686;37.532;2023-07-08T18:34:03;2.15;;;1.60;;
75311;SDS011;63906;55.686;37.532;2023-07-08T18:39:07;2.90;;;2.00;;
75311;SDS011;63906;55.686;37.532;2023-07-08T18:44:10;2.83;;;1.60;;
75311;SDS011;63906;55.686;37.532;2023-07-08T18:49:15;2.22;;;1.80;;
75311;SDS011;63906;55.686;37.532;2023-07-08T18:54:16;2.65;;;1.80;;
75311;SDS011;63906;55.686;37.532;2023-07-08T18:59:18;3.25;;;2.10;;
75311;SDS011;63906;55.686;37.532;2023-07-08T19:04:20;2.72;;;2.42;;
75311;SDS011;63906;55.686;37.532;2023-07-08T19:09:24;3.22;;;2.28;;
75311;SDS011;63906;55.686;37.532;2023-07-08T19:14:24;2.35;;;1.92;;
75311;SDS011;63906;55.686;37.532;2023-07-08T19:19:25;2.88;;;1.98;;
75311;SDS011;63906;55.686;37.532;2023-07-08T19:24:25;2.35;;;2.03;;
75311;SDS011;63906;55.686;37.532;2023-07-08T19:29:26;2.42;;;2.22;;
75311;SDS011;63906;55.686;37.532;2023-07-08T19:34:26;2.85;;;1.85;;
75311;SDS011;63906;55.686;37.532;2023-07-08T19:39:27;2.78;;;1.88;;
75311;SDS011;63906;55.686;37.532;2023-07-08T19:44:27;3.45;;;2.10;;
75311;SDS011;63906;55.686;37.532;2023-07-08T19:49:28;2.50;;;2.30;;
75311;SDS011;63906;55.686;37.532;2023-07-08T19:54:28;2.25;;;1.70;;
75311;SDS011;63906;55.686;37.532;2023-07-08T19:59:32;3.28;;;2.10;;
75311;SDS011;63906;55.686;37.532;2023-07-08T20:04:32;2.47;;;2.00;;
75311;SDS011;63906;55.686;37.532;2023-07-08T20:09:36;4.25;;;2.08;;
75311;SDS011;63906;55.686;37.532;2023-07-08T20:14:36;3.67;;;2.53;;
75311;SDS011;63906;55.686;37.532;2023-07-08T20:19:38;2.50;;;2.03;;
75311;SDS011;63906;55.686;37.532;2023-07-08T20:24:38;2.38;;;1.88;;
75311;SDS011;63906;55.686;37.532;2023-07-08T20:29:39;3.70;;;2.63;;
75311;SDS011;63906;55.686;37.532;2023-07-08T20:34:39;4.45;;;2.85;;
75311;SDS011;63906;55.686;37.532;2023-07-08T20:39:40;4.20;;;2.75;;
75311;SDS011;63906;55.686;37.532;2023-07-08T20:44:40;2.60;;;2.22;;
75311;SDS011;63906;55.686;37.532;2023-07-08T20:49:41;2.65;;;2.08;;
75311;SDS011;63906;55.686;37.532;2023-07-08T20:54:42;2.60;;;1.90;;
75311;SDS011;63906;55.686;37.532;2023-07-08T20:59:43;3.00;;;2.15;;
75311;SDS011;63906;55.686;37.532;2023-07-08T21:04:43;3.33;;;2.60;;
75311;SDS011;63906;55.686;37.532;2023-07-08T21:09:44;2.90;;;2.40;;
75311;SDS011;63906;55.686;37.532;2023-07-08T21:14:44;2.42;;;2.13;;
75311;SDS011;63906;55.686;37.532;2023-07-08T21:19:45;2.65;;;2.00;;
75311;SDS011;63906;55.686;37.532;2023-07-08T21:24:45;3.08;;;2.45;;
75311;SDS011;63906;55.686;37.532;2023-07-08T21:29:46;2.90;;;2.20;;
75311;SDS011;63906;55.686;37.532;2023-07-08T21:34:47;3.15;;;2.42;;
75311;SDS011;63906;55.686;37.532;2023-07-08T21:39:51;3.33;;;2.15;;
75311;SDS011;63906;55.686;37.532;2023-07-08T21:44:51;3.58;;;2.45;;
75311;SDS011;63906;55.686;37.532;2023-07-08T21:49:52;5.03;;;2.90;;
75311;SDS011;63906;55.686;37.532;2023-07-08T21:54:52;5.18;;;3.20;;
75311;SDS011;63906;55.686;37.532;2023-07-08T21:59:54;3.85;;;2.53;;
75311;SDS011;63906;55.686;37.532;2023-07-08T22:04:56;3.72;;;2.40;;
75311;SDS011;63906;55.686;37.532;2023-07-08T22:09:57;4.50;;;2.90;;
75311;SDS011;63906;55.686;37.532;2023-07-08T22:14:57;4.00;;;3.08;;
75311;SDS011;63906;55.686;37.532;2023-07-08T22:19:58;6.30;;;3.70;;
75311;SDS011;63906;55.686;37.532;2023-07-08T22:24:59;4.13;;;3.15;;
75311;SDS011;63906;55.686;37.532;2023-07-08T22:29:59;3.63;;;2.33;;
75311;SDS011;63906;55.686;37.532;2023-07-08T22:35:00;4.30;;;2.65;;
75311;SDS011;63906;55.686;37.532;2023-07-08T22:40:00;3.70;;;2.45;;
75311;SDS011;63906;55.686;37.532;2023-07-08T22:45:01;3.92;;;3.00;;
75311;SDS011;63906;55.686;37.532;2023-07-08T22:50:01;3.55;;;2.53;;
75311;SDS011;63906;55.686;37.532;2023-07-08T22:55:05;3.47;;;2.53;;
75311;SDS011;63906;55.686;37.532;2023-07-08T23:00:22;5.35;;;2.70;;
75311;SDS011;63906;55.686;37.532;2023-07-08T23:05:28;5.25;;;2.70;;
75311;SDS011;63906;55.686;37.532;2023-07-08T23:10:29;3.50;;;2.47;;
75311;SDS011;63906;55.686;37.532;2023-07-08T23:15:30;4.28;;;2.72;;
75311;SDS011;63906;55.686;37.532;2023-07-08T23:20:31;3.28;;;2.25;;
75311;SDS011;63906;55.686;37.532;2023-07-08T23:25:31;3.78;;;2.67;;
75311;SDS011;63906;55.686;37.532;2023-07-08T23:30:32;3.70;;;2.53;;
75311;SDS011;63906;55.686;37.532;2023-07-08T23:35:32;4.28;;;3.00;;
75311;SDS011;63906;55.686;37.532;2023-07-08T23:40:33;5.85;;;3.20;;
75311;SDS011;63906;55.686;37.532;2023-07-08T23:45:33;4.17;;;2.60;;
75311;SDS011;63906;55.686;37.532;2023-07-08T23:50:34;4.38;;;2.83;;
75311;SDS011;63906;55.686;37.532;2023-07-08T23:55:34;4.20;;;2.63;;
